CheckWX is a tool to help pilots better visualize weather data.  It is not intended as a substitute for an official pre-flight weather briefing.

03:19:54 UTC

ENFB METAR
Oslo, Fornebu Airport
Oslo, Norway
Current

30 mins ago

ENFB 230250Z AUTO 15020KT 9999NDV NCD 14/10 Q1013 W///S3
Observed
Sep-23 @ 02:50 UTC
Wind
  • 150° at 20 KTS
Visibility
Cloud Levels
  • Clear skies
Temperature
14°C / 57°F
Dewpoint
10°C / 50°F
Humidity
77%
Altimeter
29.91" Hg
Pressure
1012.92 hPa
Previous

60 mins ago

ENFB 230220Z AUTO 15018KT 9999NDV NCD 14/10 Q1013 W///S3
Observed
Sep-23 @ 02:20 UTC
Wind
  • 150° at 18 KTS
Visibility
Cloud Levels
  • Clear skies
Temperature
14°C / 57°F
Dewpoint
10°C / 50°F
Humidity
77%
Altimeter
29.91" Hg
Pressure
1012.92 hPa
Previous

1 hour ago

ENFB 230150Z AUTO 15018KT 9999NDV NCD 14/10 Q1013 W///S3
Observed
Sep-23 @ 01:50 UTC
Wind
  • 150° at 18 KTS
Visibility
Cloud Levels
  • Clear skies
Temperature
14°C / 57°F
Dewpoint
10°C / 50°F
Humidity
77%
Altimeter
29.91" Hg
Pressure
1012.92 hPa